createdAt,value
2022-12-17T00:00:05.497Z,1014.8
2022-12-17T00:01:08.561Z,1014.7
2022-12-17T00:02:11.612Z,1014.7
2022-12-17T00:03:14.853Z,1014.7
2022-12-17T00:04:19.305Z,1014.8
2022-12-17T00:05:23.825Z,1014.8
2022-12-17T00:06:26.248Z,1014.8
2022-12-17T00:07:28.796Z,1014.8
2022-12-17T00:08:31.438Z,1014.8
2022-12-17T00:09:34.211Z,1014.8
2022-12-17T00:10:37.602Z,1014.8
2022-12-17T00:11:40.576Z,1014.7
2022-12-17T00:12:43.076Z,1014.7
2022-12-17T00:13:45.950Z,1014.8
2022-12-17T00:14:49.088Z,1014.8
2022-12-17T00:15:51.685Z,1014.8
2022-12-17T00:16:54.530Z,1014.8
2022-12-17T00:17:59.235Z,1014.8
2022-12-17T00:19:01.777Z,1014.9
2022-12-17T00:20:04.302Z,1014.9
2022-12-17T00:21:08.399Z,1014.9
2022-12-17T00:22:12.262Z,1014.9
2022-12-17T00:23:15.593Z,1014.9
2022-12-17T00:24:18.970Z,1014.9
2022-12-17T00:25:21.688Z,1014.9
2022-12-17T00:26:24.501Z,1015
2022-12-17T00:27:26.377Z,1015
2022-12-17T00:28:29.430Z,1014.9
2022-12-17T00:29:31.848Z,1015
2022-12-17T00:30:34.837Z,1015
2022-12-17T00:31:37.407Z,1015
2022-12-17T00:32:40.902Z,1015
2022-12-17T00:33:43.878Z,1015
2022-12-17T00:34:47.101Z,1015
2022-12-17T00:35:49.820Z,1015
2022-12-17T00:36:56.047Z,1015
2022-12-17T00:37:58.742Z,1015
2022-12-17T00:39:01.549Z,1015
2022-12-17T00:40:03.973Z,1015
2022-12-17T00:41:06.127Z,1014.9
2022-12-17T00:42:10.004Z,1015
2022-12-17T00:43:12.702Z,1015
2022-12-17T00:44:15.685Z,1015
2022-12-17T00:45:18.267Z,1015
2022-12-17T00:46:20.844Z,1015
2022-12-17T00:47:24.061Z,1015
2022-12-17T00:48:27.194Z,1015
2022-12-17T00:49:30.472Z,1015.1
2022-12-17T00:50:32.895Z,1015
2022-12-17T00:51:36.053Z,1015
2022-12-17T00:52:40.236Z,1015
2022-12-17T00:53:43.669Z,1015
2022-12-17T00:54:47.002Z,1015
2022-12-17T00:55:49.828Z,1015
2022-12-17T00:56:52.342Z,1015
2022-12-17T00:57:58.765Z,1015
2022-12-17T00:59:01.354Z,1015
2022-12-17T01:00:04.529Z,1015.1
2022-12-17T01:01:07.914Z,1015.1
2022-12-17T01:02:11.311Z,1015.1
2022-12-17T01:03:15.687Z,1015.1
2022-12-17T01:04:19.728Z,1015.1
2022-12-17T01:05:23.146Z,1015.1
2022-12-17T01:06:26.020Z,1015.1
2022-12-17T01:07:28.886Z,1015.1
2022-12-17T01:08:33.006Z,1015.1
2022-12-17T01:09:36.055Z,1015.2
2022-12-17T01:10:38.063Z,1015.2
2022-12-17T01:11:41.328Z,1015.2
2022-12-17T01:12:43.544Z,1015.2
2022-12-17T01:13:46.880Z,1015.3
2022-12-17T01:14:50.234Z,1015.3
2022-12-17T01:15:57.072Z,1015.3
2022-12-17T01:17:00.602Z,1015.4
2022-12-17T01:18:03.303Z,1015.3
2022-12-17T01:19:06.655Z,1015.4
2022-12-17T01:20:09.721Z,1015.4
2022-12-17T01:21:12.423Z,1015.4
2022-12-17T01:22:15.193Z,1015.4
2022-12-17T01:23:18.190Z,1015.5
2022-12-17T01:24:22.371Z,1015.5
2022-12-17T01:25:24.806Z,1015.5
2022-12-17T01:26:27.657Z,1015.5
2022-12-17T01:27:30.158Z,1015.5
2022-12-17T01:28:33.505Z,1015.6
2022-12-17T01:29:36.355Z,1015.6
2022-12-17T01:30:39.050Z,1015.6
2022-12-17T01:31:42.636Z,1015.5
2022-12-17T01:32:45.756Z,1015.6
2022-12-17T01:33:48.440Z,1015.6
2022-12-17T01:34:51.208Z,1015.6
2022-12-17T01:35:54.543Z,1015.6
2022-12-17T01:36:58.891Z,1015.6
2022-12-17T01:38:01.944Z,1015.6
2022-12-17T01:39:05.405Z,1015.6
2022-12-17T01:40:09.788Z,1015.6
2022-12-17T01:41:13.125Z,1015.7
2022-12-17T01:42:15.336Z,1015.6
2022-12-17T01:43:17.935Z,1015.6
2022-12-17T01:44:20.153Z,1015.6
2022-12-17T01:45:23.060Z,1015.7
2022-12-17T01:46:26.758Z,1015.7
2022-12-17T01:47:29.737Z,1015.7
2022-12-17T01:48:32.593Z,1015.7
2022-12-17T01:49:35.639Z,1015.7
2022-12-17T01:50:38.228Z,1015.7
2022-12-17T01:51:41.278Z,1015.7
2022-12-17T01:52:43.777Z,1015.7
2022-12-17T01:53:47.479Z,1015.7
2022-12-17T01:54:50.207Z,1015.7
2022-12-17T01:55:54.286Z,1015.7
2022-12-17T01:56:57.611Z,1015.7
2022-12-17T01:58:00.426Z,1015.7
2022-12-17T01:59:03.199Z,1015.7
2022-12-17T02:00:05.623Z,1015.7
2022-12-17T02:01:08.030Z,1015.7
2022-12-17T02:02:12.800Z,1015.8
2022-12-17T02:03:17.290Z,1015.8
2022-12-17T02:04:20.547Z,1015.7
2022-12-17T02:05:23.386Z,1015.8
2022-12-17T02:06:26.982Z,1015.8
2022-12-17T02:07:29.905Z,1015.9
2022-12-17T02:08:33.005Z,1015.9
2022-12-17T02:09:35.140Z,1015.9
2022-12-17T02:10:38.895Z,1015.9
2022-12-17T02:11:42.965Z,1015.9
2022-12-17T02:12:46.367Z,1015.9
2022-12-17T02:13:49.161Z,1015.9
2022-12-17T02:14:51.864Z,1015.9
2022-12-17T02:15:55.296Z,1015.9
2022-12-17T02:16:58.266Z,1015.9
2022-12-17T02:18:00.962Z,1015.9
2022-12-17T02:19:04.372Z,1015.9
2022-12-17T02:20:07.418Z,1015.9
2022-12-17T02:21:10.117Z,1015.9
2022-12-17T02:22:13.724Z,1015.9
2022-12-17T02:23:16.714Z,1015.9
2022-12-17T02:24:19.756Z,1015.9
2022-12-17T02:25:22.255Z,1015.9
2022-12-17T02:26:25.405Z,1015.9
2022-12-17T02:27:29.553Z,1015.9
2022-12-17T02:28:33.068Z,1015.9
2022-12-17T02:29:35.562Z,1015.9
2022-12-17T02:30:38.365Z,1015.9
2022-12-17T02:31:40.936Z,1015.9
2022-12-17T02:32:44.081Z,1015.9
2022-12-17T02:33:47.146Z,1015.9
2022-12-17T02:34:49.854Z,1015.9
2022-12-17T02:35:52.346Z,1015.9
2022-12-17T02:36:55.123Z,1015.9
2022-12-17T02:37:57.902Z,1015.9
2022-12-17T02:39:01.255Z,1015.9
2022-12-17T02:40:04.181Z,1015.9
2022-12-17T02:41:07.618Z,1015.9
2022-12-17T02:42:10.751Z,1015.9
2022-12-17T02:43:14.900Z,1015.9
2022-12-17T02:44:18.343Z,1015.9
2022-12-17T02:45:21.466Z,1015.9
2022-12-17T02:46:23.447Z,1015.9
2022-12-17T02:47:26.203Z,1015.9
2022-12-17T02:48:29.007Z,1016
2022-12-17T02:49:31.941Z,1016
2022-12-17T02:50:34.982Z,1016
2022-12-17T02:51:37.965Z,1016
2022-12-17T02:52:40.665Z,1016.1
2022-12-17T02:53:43.991Z,1016
2022-12-17T02:54:47.360Z,1016
2022-12-17T02:55:50.412Z,1016
2022-12-17T02:56:52.987Z,1015.9
2022-12-17T02:57:56.719Z,1015.9
2022-12-17T02:59:00.826Z,1015.9
2022-12-17T03:00:02.974Z,1015.9
2022-12-17T03:01:06.055Z,1015.9
2022-12-17T03:02:09.708Z,1015.9
2022-12-17T03:03:14.088Z,1016
2022-12-17T03:04:17.133Z,1015.9
2022-12-17T03:05:45.493Z,1016
2022-12-17T03:06:48.400Z,1015.9
2022-12-17T03:07:51.823Z,1015.9
2022-12-17T03:08:55.215Z,1015.9
2022-12-17T03:09:58.274Z,1015.9
2022-12-17T03:11:01.403Z,1016
2022-12-17T03:12:05.125Z,1016
2022-12-17T03:13:08.323Z,1016
2022-12-17T03:14:12.505Z,1016
2022-12-17T03:15:15.513Z,1016
2022-12-17T03:16:18.268Z,1016
2022-12-17T03:17:21.033Z,1016
2022-12-17T03:18:24.009Z,1016
2022-12-17T03:19:26.503Z,1016.1
2022-12-17T03:20:29.217Z,1016.1
2022-12-17T03:21:31.163Z,1016.1
2022-12-17T03:22:33.739Z,1016.1
2022-12-17T03:23:37.183Z,1016
2022-12-17T03:24:41.670Z,1016.1
2022-12-17T03:25:44.735Z,1016
2022-12-17T03:26:48.060Z,1016.1
2022-12-17T03:27:51.772Z,1016
2022-12-17T03:28:55.354Z,1016.1
2022-12-17T03:29:59.702Z,1016.1
2022-12-17T03:31:02.926Z,1016.1
2022-12-17T03:32:06.223Z,1016
2022-12-17T03:33:08.524Z,1016
2022-12-17T03:34:11.379Z,1016
2022-12-17T03:35:14.362Z,1016
2022-12-17T03:36:18.078Z,1016
2022-12-17T03:37:20.006Z,1016
2022-12-17T03:38:22.762Z,1016
2022-12-17T03:39:25.557Z,1016
2022-12-17T03:40:28.687Z,1016
2022-12-17T03:41:31.647Z,1016
2022-12-17T03:42:34.619Z,1016
2022-12-17T03:43:38.468Z,1015.9
2022-12-17T03:44:41.718Z,1016
2022-12-17T03:45:45.956Z,1016
2022-12-17T03:46:49.261Z,1016
2022-12-17T03:47:51.204Z,1016
2022-12-17T03:48:54.415Z,1016.1
2022-12-17T03:49:57.474Z,1016.1
2022-12-17T03:51:00.332Z,1016.1
2022-12-17T03:52:03.103Z,1016
2022-12-17T03:53:05.876Z,1016
2022-12-17T03:54:08.649Z,1016
2022-12-17T03:55:12.398Z,1016
2022-12-17T03:56:14.922Z,1016
2022-12-17T03:57:17.420Z,1016
2022-12-17T03:58:19.948Z,1016
2022-12-17T03:59:22.916Z,1016
2022-12-17T04:00:26.192Z,1016.1
2022-12-17T04:01:30.666Z,1016.1
2022-12-17T04:02:35.265Z,1016.1
2022-12-17T04:03:40.581Z,1016.1
2022-12-17T04:04:43.941Z,1016.1
2022-12-17T04:05:47.072Z,1016.1
2022-12-17T04:06:50.391Z,1016
2022-12-17T04:07:53.473Z,1016.1
2022-12-17T04:08:56.250Z,1016.1
2022-12-17T04:09:59.656Z,1016.2
2022-12-17T04:11:03.404Z,1016.2
2022-12-17T04:12:07.114Z,1016.2
2022-12-17T04:13:09.908Z,1016.1
2022-12-17T04:14:12.627Z,1016.1
2022-12-17T04:15:15.408Z,1016.1
2022-12-17T04:16:17.295Z,1016.2
2022-12-17T04:17:21.441Z,1016.2
2022-12-17T04:18:24.914Z,1016.2
2022-12-17T04:19:28.533Z,1016.2
2022-12-17T04:20:31.576Z,1016.3
2022-12-17T04:21:34.905Z,1016.2
2022-12-17T04:22:37.406Z,1016.2
2022-12-17T04:23:40.728Z,1016.3
2022-12-17T04:24:43.837Z,1016.3
2022-12-17T04:25:46.336Z,1016.3
2022-12-17T04:26:49.390Z,1016.2
2022-12-17T04:27:53.104Z,1016.3
2022-12-17T04:28:55.332Z,1016.2
2022-12-17T04:29:57.550Z,1016.2
2022-12-17T04:31:00.140Z,1016.2
2022-12-17T04:32:02.833Z,1016.2
2022-12-17T04:33:06.933Z,1016.2
2022-12-17T04:34:09.350Z,1016.3
2022-12-17T04:35:12.469Z,1016.3
2022-12-17T04:36:15.161Z,1016.3
2022-12-17T04:37:18.140Z,1016.3
2022-12-17T04:38:20.836Z,1016.3
2022-12-17T04:39:23.533Z,1016.3
2022-12-17T04:40:25.838Z,1016.3
2022-12-17T04:41:28.662Z,1016.4
2022-12-17T04:42:31.427Z,1016.3
2022-12-17T04:43:34.279Z,1016.3
2022-12-17T04:44:39.112Z,1016.4
2022-12-17T04:45:42.106Z,1016.4
2022-12-17T04:46:45.166Z,1016.4
2022-12-17T04:47:48.099Z,1016.4
2022-12-17T04:48:52.188Z,1016.4
2022-12-17T04:49:55.511Z,1016.4
2022-12-17T04:50:58.272Z,1016.4
2022-12-17T04:52:01.134Z,1016.4
2022-12-17T04:53:03.962Z,1016.4
2022-12-17T04:54:06.820Z,1016.4
2022-12-17T04:55:10.209Z,1016.4
2022-12-17T04:56:12.693Z,1016.4
2022-12-17T04:57:15.631Z,1016.4
2022-12-17T04:58:18.160Z,1016.4
2022-12-17T04:59:20.305Z,1016.4
2022-12-17T05:00:23.091Z,1016.4
2022-12-17T05:01:26.404Z,1016.4
2022-12-17T05:02:30.577Z,1016.3
2022-12-17T05:03:35.666Z,1016.4
2022-12-17T05:04:42.803Z,1016.3
2022-12-17T05:05:45.778Z,1016.4
2022-12-17T05:06:48.576Z,1016.3
2022-12-17T05:07:52.256Z,1016.3
2022-12-17T05:08:54.959Z,1016.3
2022-12-17T05:09:57.808Z,1016.3
2022-12-17T05:11:01.162Z,1016.4
2022-12-17T05:12:04.320Z,1016.3
2022-12-17T05:13:07.387Z,1016.3
2022-12-17T05:14:09.678Z,1016.4
2022-12-17T05:15:13.085Z,1016.4
2022-12-17T05:16:15.767Z,1016.4
2022-12-17T05:17:18.026Z,1016.5
2022-12-17T05:18:20.594Z,1016.5
2022-12-17T05:19:23.605Z,1016.6
2022-12-17T05:20:27.739Z,1016.6
2022-12-17T05:21:33.787Z,1016.6
2022-12-17T05:22:36.214Z,1016.6
2022-12-17T05:23:39.229Z,1016.6
2022-12-17T05:24:41.801Z,1016.6
2022-12-17T05:25:45.140Z,1016.6
2022-12-17T05:26:47.145Z,1016.6
2022-12-17T05:27:49.916Z,1016.6
2022-12-17T05:28:52.875Z,1016.6
2022-12-17T05:29:56.233Z,1016.6
2022-12-17T05:30:59.104Z,1016.6
2022-12-17T05:32:02.194Z,1016.7
2022-12-17T05:33:05.453Z,1016.7
2022-12-17T05:34:08.444Z,1016.7
2022-12-17T05:35:12.364Z,1016.7
2022-12-17T05:36:16.509Z,1016.7
2022-12-17T05:37:20.008Z,1016.7
2022-12-17T05:38:23.053Z,1016.7
2022-12-17T05:39:26.180Z,1016.7
2022-12-17T05:40:28.984Z,1016.8
2022-12-17T05:41:32.616Z,1016.8
2022-12-17T05:42:35.324Z,1016.8
2022-12-17T05:43:39.175Z,1016.8
2022-12-17T05:44:42.350Z,1016.8
2022-12-17T05:45:44.925Z,1016.8
2022-12-17T05:46:47.891Z,1016.8
2022-12-17T05:47:51.025Z,1016.8
2022-12-17T05:48:54.168Z,1016.8
2022-12-17T05:49:57.213Z,1016.8
2022-12-17T05:50:59.935Z,1016.7
2022-12-17T05:52:04.131Z,1016.8
2022-12-17T05:53:07.763Z,1016.8
2022-12-17T05:54:10.338Z,1016.8
2022-12-17T05:55:13.039Z,1016.8
2022-12-17T05:56:16.392Z,1016.8
2022-12-17T05:57:18.902Z,1016.8
2022-12-17T05:58:22.005Z,1016.9
2022-12-17T05:59:25.444Z,1016.8
2022-12-17T06:00:27.936Z,1016.9
2022-12-17T06:01:30.746Z,1016.9
2022-12-17T06:02:34.589Z,1016.9
2022-12-17T06:03:39.222Z,1016.9
2022-12-17T06:04:45.104Z,1016.9
2022-12-17T06:05:48.172Z,1017
2022-12-17T06:06:51.617Z,1017
2022-12-17T06:07:57.704Z,1016.9
2022-12-17T06:09:00.127Z,1017
2022-12-17T06:10:02.993Z,1017
2022-12-17T06:11:05.528Z,1017
2022-12-17T06:12:08.610Z,1017
2022-12-17T06:13:11.394Z,1017
2022-12-17T06:14:13.887Z,1017
2022-12-17T06:15:16.934Z,1017
2022-12-17T06:16:20.510Z,1017
2022-12-17T06:17:24.161Z,1017
2022-12-17T06:18:27.220Z,1017
2022-12-17T06:19:29.994Z,1017
2022-12-17T06:20:33.402Z,1017
2022-12-17T06:21:35.996Z,1017
2022-12-17T06:22:38.912Z,1017
2022-12-17T06:23:43.006Z,1017.1
2022-12-17T06:24:46.541Z,1017.1
2022-12-17T06:25:49.237Z,1017.1
2022-12-17T06:26:52.005Z,1017.1
2022-12-17T06:27:55.133Z,1017.1
2022-12-17T06:28:58.187Z,1017.1
2022-12-17T06:30:01.617Z,1017.2
2022-12-17T06:31:04.520Z,1017.2
2022-12-17T06:32:07.467Z,1017.2
2022-12-17T06:33:10.157Z,1017.2
2022-12-17T06:34:13.009Z,1017.1
2022-12-17T06:35:15.431Z,1017.2
2022-12-17T06:36:23.212Z,1017.2
2022-12-17T06:37:26.270Z,1017.2
2022-12-17T06:38:29.545Z,1017.3
2022-12-17T06:39:33.695Z,1017.3
2022-12-17T06:40:37.045Z,1017.2
2022-12-17T06:41:39.812Z,1017.3
2022-12-17T06:42:42.453Z,1017.3
2022-12-17T06:43:46.166Z,1017.3
2022-12-17T06:44:48.758Z,1017.3
2022-12-17T06:45:51.907Z,1017.4
2022-12-17T06:46:54.903Z,1017.4
2022-12-17T06:47:59.813Z,1017.4
2022-12-17T06:49:02.577Z,1017.4
2022-12-17T06:50:06.222Z,1017.4
2022-12-17T06:51:09.305Z,1017.4
2022-12-17T06:52:12.097Z,1017.4
2022-12-17T06:53:15.804Z,1017.4
2022-12-17T06:54:18.253Z,1017.4
2022-12-17T06:55:22.358Z,1017.4
2022-12-17T06:56:24.523Z,1017.5
2022-12-17T06:57:27.666Z,1017.5
2022-12-17T06:58:30.746Z,1017.5
2022-12-17T06:59:33.821Z,1017.5
2022-12-17T07:00:37.186Z,1017.5
2022-12-17T07:01:39.881Z,1017.5
2022-12-17T07:02:43.898Z,1017.5
2022-12-17T07:03:46.717Z,1017.5
2022-12-17T07:04:49.814Z,1017.5
2022-12-17T07:05:51.955Z,1017.6
2022-12-17T07:06:55.019Z,1017.6
2022-12-17T07:07:57.889Z,1017.6
2022-12-17T07:09:00.314Z,1017.6
2022-12-17T07:10:03.420Z,1017.6
2022-12-17T07:11:17.551Z,1017.6
2022-12-17T07:12:20.683Z,1017.6
2022-12-17T07:13:24.015Z,1017.6
2022-12-17T07:14:27.075Z,1017.6
2022-12-17T07:15:29.779Z,1017.6
2022-12-17T07:16:32.925Z,1017.7
2022-12-17T07:17:36.761Z,1017.6
2022-12-17T07:18:39.256Z,1017.6
2022-12-17T07:19:42.609Z,1017.7
2022-12-17T07:20:45.686Z,1017.7
2022-12-17T07:21:48.181Z,1017.7
2022-12-17T07:22:51.035Z,1017.8
2022-12-17T07:23:54.367Z,1017.8
2022-12-17T07:24:57.426Z,1017.8
2022-12-17T07:26:00.502Z,1017.8
2022-12-17T07:27:05.051Z,1017.8
2022-12-17T07:28:08.123Z,1017.8
2022-12-17T07:29:11.378Z,1017.8
2022-12-17T07:30:14.173Z,1017.8
2022-12-17T07:31:16.559Z,1017.8
2022-12-17T07:32:19.532Z,1017.9
2022-12-17T07:33:23.171Z,1017.8
2022-12-17T07:34:26.500Z,1017.9
2022-12-17T07:35:29.278Z,1017.9
2022-12-17T07:36:32.405Z,1017.9
2022-12-17T07:37:34.826Z,1017.9
2022-12-17T07:38:37.673Z,1018
2022-12-17T07:39:40.784Z,1017.9
2022-12-17T07:40:43.757Z,1017.9
2022-12-17T07:41:46.834Z,1017.9
2022-12-17T07:42:50.930Z,1017.9
2022-12-17T07:43:53.941Z,1018
2022-12-17T07:44:56.997Z,1018
2022-12-17T07:46:00.239Z,1018
2022-12-17T07:47:03.197Z,1018
2022-12-17T07:48:06.872Z,1018
2022-12-17T07:49:10.803Z,1018
2022-12-17T07:50:13.858Z,1018
2022-12-17T07:51:16.357Z,1018
2022-12-17T07:52:18.854Z,1018
2022-12-17T07:53:21.906Z,1018
2022-12-17T07:54:25.063Z,1018.1
2022-12-17T07:55:28.119Z,1018.1
2022-12-17T07:56:31.627Z,1018
2022-12-17T07:57:34.697Z,1018.1
2022-12-17T07:58:38.846Z,1018.1
2022-12-17T07:59:41.895Z,1018.1
2022-12-17T08:00:49.662Z,1018.1
2022-12-17T08:01:53.132Z,1018
2022-12-17T08:02:57.521Z,1018.1
2022-12-17T08:04:00.570Z,1018.1
2022-12-17T08:05:03.922Z,1018.2
2022-12-17T08:06:06.604Z,1018.1
2022-12-17T08:07:14.441Z,1018.2
2022-12-17T08:08:17.284Z,1018.2
2022-12-17T08:09:20.050Z,1018.2
2022-12-17T08:10:23.103Z,1018.2
2022-12-17T08:11:25.959Z,1018.2
2022-12-17T08:12:29.100Z,1018.2
2022-12-17T08:13:31.889Z,1018.2
2022-12-17T08:14:37.034Z,1018.2
2022-12-17T08:15:39.464Z,1018.2
2022-12-17T08:16:42.449Z,1018.2
2022-12-17T08:17:45.722Z,1018.2
2022-12-17T08:18:49.456Z,1018.2
2022-12-17T08:19:52.508Z,1018.3
2022-12-17T08:20:55.288Z,1018.2
2022-12-17T08:21:58.079Z,1018.2
2022-12-17T08:23:00.917Z,1018.3
2022-12-17T08:24:04.620Z,1018.3
2022-12-17T08:25:07.731Z,1018.3
2022-12-17T08:26:11.147Z,1018.3
2022-12-17T08:27:14.854Z,1018.3
2022-12-17T08:28:50.761Z,1018.3
2022-12-17T08:29:55.313Z,1018.3
2022-12-17T08:30:59.851Z,1018.3
2022-12-17T08:32:03.192Z,1018.3
2022-12-17T08:33:06.039Z,1018.3
2022-12-17T08:34:09.004Z,1018.3
2022-12-17T08:35:12.061Z,1018.4
2022-12-17T08:36:14.528Z,1018.3
2022-12-17T08:37:17.778Z,1018.4
2022-12-17T08:38:20.333Z,1018.4
2022-12-17T08:39:22.838Z,1018.3
2022-12-17T08:40:25.682Z,1018.4
2022-12-17T08:41:27.899Z,1018.4
2022-12-17T08:42:31.326Z,1018.3
2022-12-17T08:43:34.034Z,1018.4
2022-12-17T08:44:39.636Z,1018.3
2022-12-17T08:45:43.965Z,1018.4
2022-12-17T08:46:46.710Z,1018.4
2022-12-17T08:47:50.140Z,1018.4
2022-12-17T08:48:53.860Z,1018.4
2022-12-17T08:49:55.727Z,1018.4
2022-12-17T08:50:58.148Z,1018.4
2022-12-17T08:52:00.920Z,1018.4
2022-12-17T08:53:03.409Z,1018.4
2022-12-17T08:54:06.740Z,1018.5
2022-12-17T08:55:09.612Z,1018.5
2022-12-17T08:56:12.319Z,1018.5
2022-12-17T08:57:32.103Z,1018.5
2022-12-17T08:58:35.901Z,1018.5
2022-12-17T08:59:38.430Z,1018.5
2022-12-17T09:00:41.922Z,1018.6
2022-12-17T09:01:46.326Z,1018.5
2022-12-17T09:02:50.211Z,1018.5
2022-12-17T09:03:53.749Z,1018.6
2022-12-17T09:04:56.885Z,1018.6
2022-12-17T09:05:59.583Z,1018.6
2022-12-17T09:07:02.633Z,1018.6
2022-12-17T09:08:05.470Z,1018.6
2022-12-17T09:09:08.707Z,1018.6
2022-12-17T09:10:11.546Z,1018.6
2022-12-17T09:11:14.873Z,1018.6
2022-12-17T09:12:18.027Z,1018.6
2022-12-17T09:13:20.877Z,1018.5
2022-12-17T09:14:24.281Z,1018.5
2022-12-17T09:15:26.701Z,1018.5
2022-12-17T09:16:29.593Z,1018.5
2022-12-17T09:17:34.024Z,1018.6
2022-12-17T09:18:36.455Z,1018.6
2022-12-17T09:19:38.877Z,1018.5
2022-12-17T09:20:41.644Z,1018.6
2022-12-17T09:21:44.624Z,1018.6
2022-12-17T09:22:47.280Z,1018.6
2022-12-17T09:23:50.482Z,1018.6
2022-12-17T09:24:53.341Z,1018.6
2022-12-17T09:25:58.786Z,1018.6
2022-12-17T09:27:01.855Z,1018.6
2022-12-17T09:28:05.295Z,1018.6
2022-12-17T09:29:08.703Z,1018.6
2022-12-17T09:30:11.473Z,1018.6
2022-12-17T09:31:14.406Z,1018.6
2022-12-17T09:32:18.093Z,1018.6
2022-12-17T09:33:22.164Z,1018.6
2022-12-17T09:34:24.865Z,1018.6
2022-12-17T09:35:27.839Z,1018.7
2022-12-17T09:36:30.689Z,1018.6
2022-12-17T09:37:33.736Z,1018.6
2022-12-17T09:38:36.725Z,1018.7
2022-12-17T09:39:39.498Z,1018.7
2022-12-17T09:40:41.920Z,1018.7
2022-12-17T09:41:44.416Z,1018.7
2022-12-17T09:42:55.677Z,1018.7
2022-12-17T09:44:03.376Z,1018.6
2022-12-17T09:45:06.138Z,1018.7
2022-12-17T09:46:08.953Z,1018.7
2022-12-17T09:47:11.165Z,1018.6
2022-12-17T09:48:14.060Z,1018.7
2022-12-17T09:49:18.397Z,1018.7
2022-12-17T09:50:21.246Z,1018.7
2022-12-17T09:51:24.505Z,1018.7
2022-12-17T09:52:27.561Z,1018.8
2022-12-17T09:53:30.333Z,1018.8
2022-12-17T09:54:33.764Z,1018.7
2022-12-17T09:55:36.535Z,1018.8
2022-12-17T09:56:38.950Z,1018.8
2022-12-17T09:57:41.717Z,1018.8
2022-12-17T09:58:44.764Z,1018.7
2022-12-17T09:59:47.501Z,1018.8
2022-12-17T10:00:50.002Z,1018.8
2022-12-17T10:02:03.097Z,1018.8
2022-12-17T10:03:06.777Z,1018.8
2022-12-17T10:04:11.016Z,1018.8
2022-12-17T10:05:15.098Z,1018.9
2022-12-17T10:06:22.949Z,1018.8
2022-12-17T10:07:26.312Z,1018.9
2022-12-17T10:08:29.097Z,1018.9
2022-12-17T10:09:32.535Z,1018.9
2022-12-17T10:10:35.533Z,1018.8
2022-12-17T10:11:38.247Z,1018.8
2022-12-17T10:12:41.323Z,1018.8
2022-12-17T10:13:44.094Z,1018.8
2022-12-17T10:14:46.945Z,1018.7
2022-12-17T10:15:49.186Z,1018.7
2022-12-17T10:16:52.355Z,1018.7
2022-12-17T10:17:55.954Z,1018.7
2022-12-17T10:18:58.806Z,1018.7
2022-12-17T10:20:02.279Z,1018.7
2022-12-17T10:21:06.476Z,1018.6
2022-12-17T10:22:09.426Z,1018.6
2022-12-17T10:23:12.846Z,1018.7
2022-12-17T10:24:19.088Z,1018.7
2022-12-17T10:25:21.579Z,1018.7
2022-12-17T10:26:23.713Z,1018.7
2022-12-17T10:27:26.475Z,1018.7
2022-12-17T10:28:29.259Z,1018.7
2022-12-17T10:29:32.680Z,1018.6
2022-12-17T10:30:35.169Z,1018.6
2022-12-17T10:31:38.120Z,1018.6
2022-12-17T10:32:41.241Z,1018.6
2022-12-17T10:33:44.291Z,1018.6
2022-12-17T10:34:47.367Z,1018.5
2022-12-17T10:35:49.880Z,1018.4
2022-12-17T10:36:54.019Z,1018.4
2022-12-17T10:37:57.382Z,1018.4
2022-12-17T10:39:00.084Z,1018.4
2022-12-17T10:40:02.576Z,1018.4
2022-12-17T10:41:05.833Z,1018.4
2022-12-17T10:42:08.531Z,1018.4
2022-12-17T10:43:11.525Z,1018.5
2022-12-17T10:44:14.226Z,1018.5
2022-12-17T10:45:17.270Z,1018.5
2022-12-17T10:46:20.183Z,1018.5
2022-12-17T10:47:23.254Z,1018.5
2022-12-17T10:48:25.957Z,1018.5
2022-12-17T10:49:28.927Z,1018.6
2022-12-17T10:50:32.186Z,1018.6
2022-12-17T10:51:34.721Z,1018.6
2022-12-17T10:52:38.866Z,1018.6
2022-12-17T10:53:41.911Z,1018.6
2022-12-17T10:54:50.003Z,1018.6
2022-12-17T10:55:53.089Z,1018.7
2022-12-17T10:56:56.429Z,1018.7
2022-12-17T10:57:59.516Z,1018.6
2022-12-17T10:59:02.490Z,1018.6
2022-12-17T11:00:05.292Z,1018.6
2022-12-17T11:01:07.928Z,1018.7
2022-12-17T11:02:12.165Z,1018.7
2022-12-17T11:03:16.087Z,1018.6
2022-12-17T11:04:19.580Z,1018.6
2022-12-17T11:05:21.725Z,1018.6
2022-12-17T11:06:24.703Z,1018.6
2022-12-17T11:07:28.089Z,1018.6
2022-12-17T11:08:32.252Z,1018.7
2022-12-17T11:09:35.796Z,1018.6
2022-12-17T11:10:39.062Z,1018.6
2022-12-17T11:11:41.765Z,1018.7
2022-12-17T11:12:44.814Z,1018.6
2022-12-17T11:13:48.070Z,1018.7
2022-12-17T11:14:51.072Z,1018.6
2022-12-17T11:15:53.756Z,1018.7
2022-12-17T11:16:56.471Z,1018.7
2022-12-17T11:17:59.812Z,1018.7
2022-12-17T11:19:02.222Z,1018.7
2022-12-17T11:20:04.660Z,1018.7
2022-12-17T11:21:07.352Z,1018.7
2022-12-17T11:22:10.689Z,1018.6
2022-12-17T11:23:13.863Z,1018.6
2022-12-17T11:24:23.240Z,1018.6
2022-12-17T11:25:25.948Z,1018.6
2022-12-17T11:26:28.991Z,1018.6
2022-12-17T11:27:31.472Z,1018.6
2022-12-17T11:28:34.274Z,1018.6
2022-12-17T11:29:37.388Z,1018.6
2022-12-17T11:30:39.931Z,1018.6
2022-12-17T11:31:42.869Z,1018.6
2022-12-17T11:32:46.000Z,1018.6
2022-12-17T11:33:48.773Z,1018.6
2022-12-17T11:34:51.851Z,1018.6
2022-12-17T11:35:55.278Z,1018.5
2022-12-17T11:36:57.422Z,1018.5
2022-12-17T11:37:59.864Z,1018.6
2022-12-17T11:39:02.402Z,1018.6
2022-12-17T11:40:06.851Z,1018.6
2022-12-17T11:41:09.431Z,1018.6
2022-12-17T11:42:12.481Z,1018.6
2022-12-17T11:43:15.252Z,1018.6
2022-12-17T11:44:17.625Z,1018.6
2022-12-17T11:45:20.736Z,1018.6
2022-12-17T11:46:23.380Z,1018.6
2022-12-17T11:47:27.186Z,1018.5
2022-12-17T11:48:30.453Z,1018.6
2022-12-17T11:49:33.428Z,1018.5
2022-12-17T11:50:36.405Z,1018.5
2022-12-17T11:51:39.382Z,1018.5
2022-12-17T11:52:42.714Z,1018.5
2022-12-17T11:53:45.762Z,1018.5
2022-12-17T11:54:48.638Z,1018.4
2022-12-17T11:55:52.779Z,1018.5
2022-12-17T11:56:55.281Z,1018.5
2022-12-17T11:57:57.987Z,1018.5
2022-12-17T11:59:00.639Z,1018.5
2022-12-17T12:00:05.095Z,1018.5
2022-12-17T12:01:07.323Z,1018.5
2022-12-17T12:02:10.376Z,1018.6
2022-12-17T12:03:13.367Z,1018.6
2022-12-17T12:04:16.126Z,1018.6
2022-12-17T12:05:19.603Z,1018.6
2022-12-17T12:06:22.385Z,1018.6
2022-12-17T12:07:24.247Z,1018.6
2022-12-17T12:08:26.744Z,1018.5
2022-12-17T12:09:30.426Z,1018.6
2022-12-17T12:10:33.811Z,1018.6
2022-12-17T12:11:37.944Z,1018.6
2022-12-17T12:12:41.101Z,1018.7
2022-12-17T12:13:44.442Z,1018.7
2022-12-17T12:14:47.211Z,1018.7
2022-12-17T12:15:50.179Z,1018.7
2022-12-17T12:16:54.289Z,1018.7
2022-12-17T12:17:57.663Z,1018.7
2022-12-17T12:19:01.355Z,1018.6
2022-12-17T12:20:03.612Z,1018.7
2022-12-17T12:21:05.843Z,1018.7
2022-12-17T12:22:08.556Z,1018.7
2022-12-17T12:23:12.639Z,1018.7
2022-12-17T12:24:15.055Z,1018.7
2022-12-17T12:25:18.412Z,1018.7
2022-12-17T12:26:21.129Z,1018.7
2022-12-17T12:27:25.342Z,1018.7
2022-12-17T12:28:28.320Z,1018.7
2022-12-17T12:29:31.097Z,1018.8
2022-12-17T12:30:33.607Z,1018.8
2022-12-17T12:31:36.920Z,1018.7
2022-12-17T12:32:40.313Z,1018.8
2022-12-17T12:33:43.091Z,1018.8
2022-12-17T12:34:45.632Z,1018.7
2022-12-17T12:35:49.073Z,1018.8
2022-12-17T12:36:52.219Z,1018.8
2022-12-17T12:37:55.542Z,1018.8
2022-12-17T12:38:59.442Z,1018.7
2022-12-17T12:40:03.152Z,1018.8
2022-12-17T12:41:05.645Z,1018.8
2022-12-17T12:42:08.153Z,1018.8
2022-12-17T12:43:12.494Z,1018.8
2022-12-17T12:44:15.191Z,1018.8
2022-12-17T12:45:18.044Z,1018.8
2022-12-17T12:46:20.135Z,1018.8
2022-12-17T12:47:22.609Z,1018.9
2022-12-17T12:48:25.928Z,1018.8
2022-12-17T12:49:28.838Z,1018.9
2022-12-17T12:50:32.029Z,1018.8
2022-12-17T12:51:34.827Z,1018.8
2022-12-17T12:52:37.525Z,1018.8
2022-12-17T12:53:40.575Z,1018.8
2022-12-17T12:54:43.933Z,1018.9
2022-12-17T12:55:46.976Z,1018.9
2022-12-17T12:56:49.670Z,1018.9
2022-12-17T12:57:52.542Z,1018.9
2022-12-17T12:58:56.675Z,1018.8
2022-12-17T13:00:00.317Z,1018.9
2022-12-17T13:01:02.663Z,1018.9
2022-12-17T13:02:07.201Z,1018.9
2022-12-17T13:03:10.883Z,1019
2022-12-17T13:04:14.231Z,1018.9
2022-12-17T13:05:17.937Z,1019
2022-12-17T13:06:20.083Z,1019
2022-12-17T13:07:23.518Z,1019
2022-12-17T13:08:26.496Z,1019
2022-12-17T13:09:35.405Z,1019
2022-12-17T13:10:38.518Z,1019
2022-12-17T13:11:41.676Z,1019
2022-12-17T13:12:44.550Z,1019
2022-12-17T13:13:47.335Z,1019
2022-12-17T13:14:51.515Z,1019
2022-12-17T13:15:54.229Z,1019
2022-12-17T13:16:57.665Z,1019.1